Time;durP1;ratioP1;P1;durP2;ratioP2;P2;SDS_P1;SDS_P2;PMS_P1;PMS_P2;Temp;Humidity;BMP_temperature;BMP_pressure;BME280_temperature;BME280_humidity;BME280_pressure;Samples;Min_cycle;Max_cycle;Signal;HPM_P1;HPM_P2
2021/04/04 00:00:08;;;;;;;19.85;12.73;;;10.00;99.90;;;;;;5023949;28;20041;-66
2021/04/04 00:02:34;;;;;;;13.38;11.05;;;10.00;99.90;;;;;;5020064;28;20040;-67
2021/04/04 00:04:59;;;;;;;18.27;12.00;;;9.80;99.90;;;;;;5002923;28;20026;-67
2021/04/04 00:07:25;;;;;;;16.85;11.20;;;10.00;99.90;;;;;;5010980;28;20121;-66
2021/04/04 00:09:51;;;;;;;19.10;11.90;;;9.90;99.90;;;;;;5003143;28;20104;-67
2021/04/04 00:12:16;;;;;;;14.25;11.15;;;9.80;99.90;;;;;;5013179;28;20047;-67
2021/04/04 00:14:42;;;;;;;19.77;12.23;;;10.00;99.90;;;;;;5007602;28;20041;-66
2021/04/04 00:17:09;;;;;;;20.55;12.20;;;9.90;99.90;;;;;;5016797;28;20040;-66
2021/04/04 00:19:35;;;;;;;14.68;11.80;;;10.00;99.90;;;;;;5019333;28;20037;-66
2021/04/04 00:22:00;;;;;;;14.18;11.07;;;9.90;99.90;;;;;;5026238;28;20030;-66
2021/04/04 00:24:26;;;;;;;18.05;11.68;;;9.70;99.90;;;;;;5014280;28;20057;-68
2021/04/04 00:26:52;;;;;;;16.77;12.30;;;9.70;99.90;;;;;;5023308;28;20420;-66
2021/04/04 00:29:18;;;;;;;13.88;11.05;;;9.70;99.90;;;;;;5006067;28;20068;-66
2021/04/04 00:31:44;;;;;;;16.17;12.18;;;9.60;99.90;;;;;;5031103;28;20279;-67
2021/04/04 00:34:09;;;;;;;16.30;11.77;;;9.40;99.90;;;;;;5004332;28;20037;-66
2021/04/04 00:36:35;;;;;;;17.90;12.02;;;9.40;99.90;;;;;;5011882;28;20489;-67
2021/04/04 00:39:05;;;;;;;18.55;11.32;;;9.50;99.90;;;;;;5014886;28;20436;-66
2021/04/04 00:41:31;;;;;;;18.40;12.45;;;9.50;99.90;;;;;;5027743;28;20041;-68
2021/04/04 00:43:57;;;;;;;16.85;12.23;;;9.30;99.90;;;;;;5014390;28;20025;-67
2021/04/04 00:46:22;;;;;;;16.50;12.27;;;9.20;99.90;;;;;;5025468;28;20049;-66
2021/04/04 00:48:48;;;;;;;15.15;12.35;;;9.10;99.90;;;;;;5014200;28;20060;-67
2021/04/04 00:51:14;;;;;;;16.40;11.73;;;9.30;99.90;;;;;;5023080;28;20038;-66
2021/04/04 00:53:40;;;;;;;18.35;13.50;;;9.10;99.90;;;;;;5010687;28;20041;-67
2021/04/04 00:56:06;;;;;;;21.13;13.07;;;9.00;99.90;;;;;;5022759;28;20018;-66
2021/04/04 00:58:32;;;;;;;14.02;12.02;;;9.10;99.90;;;;;;5011765;28;20631;-67
2021/04/04 01:00:58;;;;;;;19.15;12.95;;;9.10;99.90;;;;;;5021776;28;20018;-67
2021/04/04 01:03:24;;;;;;;17.95;13.90;;;9.00;99.90;;;;;;5017027;28;20674;-66
2021/04/04 01:05:54;;;;;;;19.77;13.77;;;8.90;99.90;;;;;;5025027;28;20045;-66
2021/04/04 01:08:19;;;;;;;24.20;13.88;;;9.00;99.90;;;;;;5011907;28;20022;-66
2021/04/04 01:10:47;;;;;;;20.70;13.35;;;9.00;99.90;;;;;;5021517;28;20036;-67
2021/04/04 01:13:24;;;;;;;17.45;13.45;;;8.90;99.90;;;;;;5016558;28;20033;-69
2021/04/04 01:16:04;;;;;;;18.40;13.15;;;9.00;99.90;;;;;;5020491;28;20022;-67
2021/04/04 01:18:36;;;;;;;21.67;12.68;;;8.90;99.90;;;;;;5012581;28;20021;-67
2021/04/04 01:21:18;;;;;;;19.40;12.98;;;8.90;99.90;;;;;;5019555;28;20036;-66
2021/04/04 01:24:11;;;;;;;19.80;13.32;;;8.80;99.90;;;;;;5008628;28;20021;-67
2021/04/04 01:26:48;;;;;;;20.77;13.57;;;8.80;99.90;;;;;;5025114;28;20055;-67
2021/04/04 01:29:18;;;;;;;22.13;13.10;;;8.80;99.90;;;;;;5013186;28;20033;-67
2021/04/04 01:31:45;;;;;;;19.50;14.52;;;8.70;99.90;;;;;;5027939;28;20124;-67
2021/04/04 01:34:13;;;;;;;20.42;14.23;;;8.70;99.90;;;;;;5011542;28;20034;-66
2021/04/04 01:36:40;;;;;;;22.63;14.07;;;8.70;99.90;;;;;;5024558;28;20025;-66
2021/04/04 01:39:09;;;;;;;23.45;15.43;;;8.40;99.90;;;;;;5010725;28;20513;-66
2021/04/04 01:41:42;;;;;;;20.08;15.02;;;8.60;99.90;;;;;;5024564;28;20029;-66
2021/04/04 01:44:12;;;;;;;23.00;15.40;;;8.50;99.90;;;;;;5009792;28;20087;-67
2021/04/04 01:46:40;;;;;;;24.10;14.80;;;8.50;99.90;;;;;;5024048;28;20057;-67
2021/04/04 01:49:06;;;;;;;22.73;15.02;;;8.50;99.90;;;;;;5009109;28;20056;-67
2021/04/04 01:51:33;;;;;;;20.45;14.45;;;8.60;99.90;;;;;;5022273;28;20116;-66
2021/04/04 01:54:02;;;;;;;26.58;14.60;;;8.40;99.90;;;;;;5009666;28;20053;-67
2021/04/04 01:56:28;;;;;;;20.85;14.95;;;8.60;99.90;;;;;;5017921;28;20060;-67
2021/04/04 01:58:55;;;;;;;22.25;15.23;;;8.50;99.90;;;;;;5014992;28;20048;-67
2021/04/04 02:01:21;;;;;;;20.25;14.98;;;8.40;99.90;;;;;;5015728;28;20030;-66
2021/04/04 02:03:48;;;;;;;21.08;15.52;;;8.50;99.90;;;;;;5011520;28;20051;-67
2021/04/04 02:06:16;;;;;;;24.75;16.35;;;8.20;99.90;;;;;;5020788;28;20045;-67
2021/04/04 02:08:43;;;;;;;25.60;15.23;;;8.20;99.90;;;;;;5010380;28;20053;-67
2021/04/04 02:11:11;;;;;;;21.75;14.07;;;8.40;99.90;;;;;;5020217;28;20017;-67
2021/04/04 02:13:37;;;;;;;21.10;14.95;;;8.40;99.90;;;;;;5009702;28;20172;-67
2021/04/04 02:16:06;;;;;;;25.58;15.63;;;8.30;99.90;;;;;;5019481;28;20017;-67
2021/04/04 02:18:32;;;;;;;18.27;14.82;;;8.30;99.90;;;;;;5007419;28;20626;-67
2021/04/04 02:20:59;;;;;;;27.55;15.40;;;8.30;99.90;;;;;;5017721;28;20017;-67
2021/04/04 02:23:27;;;;;;;20.73;14.55;;;8.40;99.90;;;;;;5011543;28;20522;-67
2021/04/04 02:25:54;;;;;;;21.30;16.30;;;8.20;99.90;;;;;;5015440;28;20029;-67
2021/04/04 02:28:21;;;;;;;20.27;15.23;;;8.30;99.90;;;;;;5012404;28;20499;-69
2021/04/04 02:30:47;;;;;;;24.25;14.63;;;8.20;99.90;;;;;;5008608;28;20026;-67
2021/04/04 02:33:26;;;;;;;20.15;14.60;;;8.30;99.90;;;;;;5013620;28;20030;-68
2021/04/04 02:35:57;;;;;;;21.95;14.68;;;8.30;99.90;;;;;;5004254;28;20026;-68
2021/04/04 02:38:28;;;;;;;22.33;14.43;;;8.30;99.90;;;;;;5000695;28;20030;-68
2021/04/04 02:40:55;;;;;;;20.67;14.75;;;8.30;99.90;;;;;;5004581;28;20030;-67
2021/04/04 02:43:26;;;;;;;25.55;17.02;;;8.20;99.90;;;;;;5003065;28;20033;-67
2021/04/04 02:45:52;;;;;;;21.85;15.43;;;7.80;99.90;;;;;;4995672;28;20105;-68
2021/04/04 02:48:23;;;;;;;21.52;15.90;;;7.80;99.90;;;;;;5002799;28;20433;-67
2021/04/04 02:50:51;;;;;;;26.45;15.30;;;8.00;99.90;;;;;;4997772;28;20022;-67
2021/04/04 02:53:19;;;;;;;21.98;16.23;;;8.00;99.90;;;;;;5002019;28;20029;-69
2021/04/04 02:55:47;;;;;;;24.40;15.73;;;8.10;99.90;;;;;;4997852;28;20043;-67
2021/04/04 02:58:13;;;;;;;25.75;15.73;;;7.90;99.90;;;;;;5000834;28;20049;-67
2021/04/04 03:00:41;;;;;;;28.13;16.65;;;7.90;99.90;;;;;;4997013;28;20422;-67
2021/04/04 03:03:10;;;;;;;26.40;16.42;;;7.80;99.90;;;;;;5005218;28;20022;-67
2021/04/04 03:05:36;;;;;;;28.25;17.55;;;7.80;99.90;;;;;;4990512;28;20537;-67
2021/04/04 03:08:04;;;;;;;20.20;15.98;;;7.80;99.90;;;;;;5001157;28;20166;-67
2021/04/04 03:10:31;;;;;;;21.17;16.58;;;7.90;99.90;;;;;;5002522;28;20087;-67
2021/04/04 03:12:58;;;;;;;27.02;17.17;;;7.80;99.90;;;;;;5005582;28;20486;-67
2021/04/04 03:15:26;;;;;;;24.88;16.83;;;7.60;99.90;;;;;;5000128;28;20025;-67
2021/04/04 03:17:54;;;;;;;30.42;17.92;;;7.70;99.90;;;;;;5005566;28;20033;-65
2021/04/04 03:20:21;;;;;;;28.88;17.10;;;7.50;99.90;;;;;;4998526;28;20105;-65
2021/04/04 03:22:51;;;;;;;35.25;18.27;;;7.60;99.90;;;;;;5004554;28;20026;-65
2021/04/04 03:25:18;;;;;;;24.17;17.20;;;7.50;99.90;;;;;;5010829;28;20030;-65
2021/04/04 03:27:46;;;;;;;26.77;16.88;;;7.60;99.90;;;;;;5004142;28;20073;-65
2021/04/04 03:30:35;;;;;;;23.50;17.90;;;7.50;99.90;;;;;;5004403;28;20018;-65
2021/04/04 03:33:02;;;;;;;28.02;17.98;;;7.50;99.90;;;;;;4996765;28;20125;-65
2021/04/04 03:35:28;;;;;;;25.45;16.90;;;7.50;99.90;;;;;;5014969;28;20017;-65
2021/04/04 03:37:56;;;;;;;29.60;18.33;;;7.60;99.90;;;;;;5007769;28;20061;-65
2021/04/04 03:40:22;;;;;;;26.17;17.30;;;7.70;99.90;;;;;;5014515;28;20044;-65
2021/04/04 03:42:49;;;;;;;26.95;17.23;;;7.50;99.90;;;;;;5014662;28;20502;-66
2021/04/04 03:45:17;;;;;;;26.20;17.52;;;7.50;99.90;;;;;;5024021;28;20029;-65
2021/04/04 03:47:43;;;;;;;21.63;16.92;;;7.30;99.90;;;;;;5020615;28;20622;-65
2021/04/04 03:50:10;;;;;;;24.15;17.83;;;7.30;99.90;;;;;;5015208;28;20018;-65
2021/04/04 03:52:38;;;;;;;30.30;18.73;;;7.30;99.90;;;;;;5008036;28;20116;-66
2021/04/04 03:55:05;;;;;;;27.75;18.73;;;7.20;99.90;;;;;;5018458;28;20019;-65
2021/04/04 03:57:32;;;;;;;29.17;17.80;;;7.20;99.90;;;;;;5017750;28;20030;-65
2021/04/04 03:59:59;;;;;;;28.77;18.02;;;7.10;99.90;;;;;;5007741;28;20028;-65
2021/04/04 04:02:25;;;;;;;26.30;18.15;;;7.00;99.90;;;;;;5011379;28;20074;-65
2021/04/04 04:04:52;;;;;;;28.33;18.13;;;7.00;99.90;;;;;;5012598;28;20540;-65
2021/04/04 04:07:21;;;;;;;25.90;18.98;;;7.00;99.90;;;;;;5025989;28;20630;-65
2021/04/04 04:09:47;;;;;;;31.67;18.70;;;7.00;99.90;;;;;;5001926;28;20438;-65
2021/04/04 04:12:14;;;;;;;28.70;18.08;;;7.20;99.90;;;;;;4994370;28;20034;-65
2021/04/04 04:14:40;;;;;;;27.58;18.02;;;6.80;99.90;;;;;;5002286;28;20022;-65
2021/04/04 04:17:06;;;;;;;28.38;19.15;;;7.10;99.90;;;;;;5004954;28;20085;-65
2021/04/04 04:19:32;;;;;;;28.00;18.92;;;6.90;99.90;;;;;;5023851;28;20465;-65
2021/04/04 04:21:58;;;;;;;31.02;18.90;;;6.90;99.90;;;;;;5026719;28;20025;-65
2021/04/04 04:24:25;;;;;;;26.05;18.50;;;6.90;99.90;;;;;;5001822;28;20406;-65
2021/04/04 04:26:51;;;;;;;31.85;17.25;;;7.00;99.90;;;;;;5015393;28;20017;-65
2021/04/04 04:29:19;;;;;;;26.58;17.38;;;7.10;99.90;;;;;;5004058;28;20113;-65
2021/04/04 04:31:53;;;;;;;31.83;18.60;;;7.20;99.90;;;;;;4992421;28;20492;-65
2021/04/04 04:34:21;;;;;;;26.83;17.95;;;6.90;99.90;;;;;;5001190;28;20058;-65
2021/04/04 04:36:47;;;;;;;30.02;17.73;;;7.00;99.90;;;;;;5011835;28;20026;-65
2021/04/04 04:39:14;;;;;;;30.85;17.63;;;6.90;99.90;;;;;;5003742;28;20072;-65
2021/04/04 04:41:47;;;;;;;27.15;17.63;;;6.90;99.90;;;;;;4992834;28;20531;-64
2021/04/04 04:44:18;;;;;;;23.83;16.98;;;7.10;99.90;;;;;;5008310;28;20038;-65
2021/04/04 04:46:44;;;;;;;29.90;17.17;;;7.10;99.90;;;;;;5030254;28;20029;-65
2021/04/04 04:49:10;;;;;;;29.98;17.63;;;6.80;99.90;;;;;;5010841;28;20601;-65
2021/04/04 04:51:36;;;;;;;29.50;18.70;;;6.70;99.90;;;;;;5007209;28;20042;-65
2021/04/04 04:54:04;;;;;;;23.70;18.30;;;6.60;99.90;;;;;;5003176;28;20045;-65
2021/04/04 04:56:30;;;;;;;36.30;18.50;;;6.70;99.90;;;;;;4993410;28;20030;-65
2021/04/04 04:58:56;;;;;;;34.03;17.75;;;6.90;99.90;;;;;;5012375;28;20620;-65
2021/04/04 05:01:25;;;;;;;28.35;18.20;;;6.70;99.90;;;;;;5021755;28;20104;-65
2021/04/04 05:03:51;;;;;;;29.20;18.17;;;6.70;99.90;;;;;;5006053;28;20022;-65
2021/04/04 05:06:18;;;;;;;24.23;17.75;;;6.70;99.90;;;;;;5022552;28;20053;-65
2021/04/04 05:08:45;;;;;;;21.02;16.73;;;6.70;99.90;;;;;;5013536;28;20045;-66
2021/04/04 05:11:14;;;;;;;19.13;13.90;;;6.50;99.90;;;;;;5023097;28;20116;-65
2021/04/04 05:13:41;;;;;;;26.55;16.77;;;6.30;99.90;;;;;;5012377;28;20037;-64
2021/04/04 05:16:08;;;;;;;26.40;15.98;;;6.20;99.90;;;;;;5022582;28;20449;-65
2021/04/04 05:18:34;;;;;;;22.42;14.95;;;6.20;99.90;;;;;;5011253;28;20716;-64
2021/04/04 05:21:00;;;;;;;19.75;15.80;;;6.30;99.90;;;;;;5020705;28;20109;-65
2021/04/04 05:23:26;;;;;;;23.50;16.17;;;6.70;99.90;;;;;;5011603;28;20104;-65
2021/04/04 05:25:53;;;;;;;21.58;15.75;;;6.60;99.90;;;;;;5019809;28;20056;-65
2021/04/04 05:28:19;;;;;;;24.00;16.48;;;6.40;99.90;;;;;;5014470;28;20430;-65
2021/04/04 05:30:45;;;;;;;22.63;17.75;;;6.30;99.90;;;;;;5010136;28;20025;-64
2021/04/04 05:33:11;;;;;;;30.40;18.08;;;6.40;99.90;;;;;;5003985;28;20053;-66
2021/04/04 05:35:40;;;;;;;26.25;16.38;;;6.40;99.90;;;;;;5004872;28;20541;-65
2021/04/04 05:38:07;;;;;;;28.77;17.70;;;6.40;99.90;;;;;;5002966;28;20085;-64
2021/04/04 05:40:33;;;;;;;36.08;17.30;;;6.40;99.90;;;;;;4992205;28;20511;-64
2021/04/04 05:43:02;;;;;;;34.03;18.67;;;6.50;99.90;;;;;;5003440;28;20056;-64
2021/04/04 05:46:00;;;;;;;32.38;19.08;;;6.40;99.90;;;;;;5002967;28;20033;-64
2021/04/04 05:48:51;;;;;;;45.70;20.05;;;6.40;99.90;;;;;;4997030;28;20109;-64
2021/04/04 05:51:48;;;;;;;28.05;18.77;;;6.20;99.90;;;;;;5007623;28;20026;-64
2021/04/04 05:54:17;;;;;;;33.63;17.73;;;6.40;99.90;;;;;;4997227;28;20030;-64
2021/04/04 05:56:51;;;;;;;27.23;18.15;;;6.40;99.90;;;;;;5010305;28;20058;-64
2021/04/04 05:59:33;;;;;;;30.90;18.02;;;6.50;99.90;;;;;;5002288;28;20030;-64
2021/04/04 06:02:30;;;;;;;34.20;18.98;;;6.80;99.90;;;;;;5007993;28;20036;-64
2021/04/04 06:05:03;;;;;;;;;;;6.60;99.90;;;;;;4999669;28;20569;-64
2021/04/04 06:08:06;;;;;;;27.27;15.90;;;6.70;99.90;;;;;;5005140;28;19990;-64
2021/04/04 06:11:12;;;;;;;28.45;17.63;;;6.60;99.90;;;;;;5003155;28;20413;-64
2021/04/04 06:13:56;;;;;;;37.55;18.17;;;6.30;99.90;;;;;;4997916;28;20046;-64
2021/04/04 06:16:53;;;;;;;32.17;18.50;;;6.50;99.90;;;;;;5004596;28;20026;-64
2021/04/04 06:19:33;;;;;;;25.70;17.20;;;6.50;99.90;;;;;;5003448;28;20133;-64
2021/04/04 06:22:32;;;;;;;27.13;18.33;;;6.50;99.90;;;;;;5006127;28;20018;-64
2021/04/04 06:25:42;;;;;;;37.95;18.70;;;6.60;99.90;;;;;;5001078;28;20084;-63
2021/04/04 06:28:33;;;;;;;27.52;18.50;;;6.50;99.90;;;;;;5002946;28;20058;-64
2021/04/04 06:31:29;;;;;;;25.50;18.15;;;6.70;99.90;;;;;;5000609;28;20025;-64
2021/04/04 06:34:12;;;;;;;33.63;20.33;;;6.80;99.90;;;;;;5003052;28;20030;-64
2021/04/04 06:36:58;;;;;;;30.65;18.67;;;6.70;99.90;;;;;;5009651;28;20017;-64
2021/04/04 06:39:59;;;;;;;30.10;19.38;;;6.80;99.90;;;;;;5006641;28;20050;-64
2021/04/04 06:42:48;;;;;;;34.60;20.48;;;7.00;99.90;;;;;;5006015;28;20407;-64
2021/04/04 06:45:37;;;;;;;36.00;21.30;;;7.20;99.90;;;;;;5006864;28;20022;-64
2021/04/04 06:48:32;;;;;;;34.38;20.60;;;7.10;99.90;;;;;;5003071;28;20108;-64
2021/04/04 06:51:21;;;;;;;48.45;22.35;;;7.30;99.90;;;;;;5004883;28;20034;-64
2021/04/04 06:54:31;;;;;;;39.05;20.35;;;7.30;99.90;;;;;;5002236;28;20018;-64
2021/04/04 06:57:28;;;;;;;33.70;19.45;;;7.20;99.90;;;;;;5006245;28;20552;-64
2021/04/04 07:00:13;;;;;;;34.97;20.38;;;7.50;99.90;;;;;;5021347;28;20053;-64
2021/04/04 07:02:57;;;;;;;38.28;19.20;;;7.60;99.90;;;;;;5005165;28;20487;-64
2021/04/04 07:05:27;;;;;;;36.00;17.95;;;7.50;99.90;;;;;;5003015;28;20060;-64
2021/04/04 07:08:00;;;;;;;26.33;16.35;;;7.60;99.90;;;;;;5005832;28;20060;-66
2021/04/04 07:10:55;;;;;;;28.00;16.42;;;7.80;99.90;;;;;;5000627;28;20030;-64
2021/04/04 07:13:48;;;;;;;28.02;16.23;;;7.80;99.90;;;;;;5002893;28;20041;-64
2021/04/04 07:16:38;;;;;;;39.15;16.20;;;8.10;99.90;;;;;;4998593;28;20475;-65
2021/04/04 07:19:51;;;;;;;29.80;15.40;;;8.10;99.90;;;;;;4996002;28;20034;-65
2021/04/04 07:22:46;;;;;;;24.17;15.48;;;8.30;99.90;;;;;;4996184;28;20031;-66
2021/04/04 07:25:38;;;;;;;27.83;14.30;;;8.30;99.90;;;;;;5004776;28;20034;-64
2021/04/04 07:28:41;;;;;;;22.42;13.38;;;8.30;99.90;;;;;;4996037;28;20035;-64
2021/04/04 07:31:22;;;;;;;19.45;13.70;;;8.40;99.90;;;;;;5001698;28;20026;-65
2021/04/04 07:34:12;;;;;;;15.55;12.05;;;8.60;99.90;;;;;;5003950;28;20018;-65
2021/04/04 07:36:50;;;;;;;18.85;13.05;;;8.60;99.90;;;;;;5008078;28;20029;-65
2021/04/04 07:39:49;;;;;;;23.15;12.55;;;8.80;99.90;;;;;;5004901;28;20494;-65
2021/04/04 07:42:26;;;;;;;17.30;11.50;;;9.00;99.90;;;;;;5008826;28;20031;-65
2021/04/04 07:45:06;;;;;;;15.85;11.40;;;9.20;99.90;;;;;;5000021;28;20174;-65
2021/04/04 07:47:52;;;;;;;15.35;11.38;;;9.10;99.90;;;;;;4996832;28;20030;-65
2021/04/04 07:50:43;;;;;;;17.30;11.00;;;9.20;99.90;;;;;;5010248;28;20065;-64
2021/04/04 07:53:28;;;;;;;16.58;10.77;;;9.20;99.90;;;;;;5004207;28;20491;-65
2021/04/04 07:56:07;;;;;;;15.27;10.32;;;9.40;99.90;;;;;;5000434;28;20390;-65
2021/04/04 07:58:40;;;;;;;13.07;10.38;;;9.60;99.90;;;;;;4996639;28;20523;-65
2021/04/04 08:01:19;;;;;;;16.23;10.68;;;9.60;99.90;;;;;;5008832;28;20041;-65
2021/04/04 08:04:06;;;;;;;16.35;10.88;;;9.80;99.90;;;;;;5002184;28;20028;-65
2021/04/04 08:06:39;;;;;;;15.73;9.95;;;9.90;99.90;;;;;;5001428;28;20045;-65
2021/04/04 08:09:17;;;;;;;12.60;10.15;;;10.10;99.90;;;;;;5003987;28;20030;-64
2021/04/04 08:12:06;;;;;;;18.58;11.23;;;10.10;99.90;;;;;;5012444;28;20095;-65
2021/04/04 08:14:41;;;;;;;11.73;8.65;;;10.10;99.90;;;;;;5022746;28;20025;-65
2021/04/04 08:17:07;;;;;;;17.40;8.70;;;10.20;99.90;;;;;;5028292;28;20129;-64
2021/04/04 08:19:34;;;;;;;12.93;8.27;;;10.40;99.90;;;;;;5012217;28;20022;-64
2021/04/04 08:22:10;;;;;;;11.00;8.35;;;10.40;99.90;;;;;;5012557;28;20176;-64
2021/04/04 08:24:57;;;;;;;16.13;9.13;;;10.50;99.90;;;;;;5012096;28;20025;-64
2021/04/04 08:27:32;;;;;;;7.80;6.90;;;10.60;99.90;;;;;;5012420;28;20037;-64
2021/04/04 08:30:07;;;;;;;11.57;7.15;;;10.80;99.90;;;;;;5019324;28;20450;-64
2021/04/04 08:32:53;;;;;;;11.40;6.68;;;10.90;99.90;;;;;;5016111;28;20411;-64
2021/04/04 08:35:25;;;;;;;24.52;7.13;;;11.10;99.90;;;;;;5009932;28;20017;-64
2021/04/04 08:37:55;;;;;;;7.93;5.88;;;11.30;99.90;;;;;;5018612;28;20031;-65
2021/04/04 08:40:23;;;;;;;125.80;11.02;;;11.30;99.90;;;;;;5015562;28;20018;-65
2021/04/04 08:42:50;;;;;;;8.20;6.13;;;11.50;99.90;;;;;;5017261;28;20621;-64
2021/04/04 08:45:22;;;;;;;9.68;5.97;;;11.40;99.90;;;;;;5024415;28;20020;-64
2021/04/04 08:47:50;;;;;;;7.75;5.57;;;11.40;99.90;;;;;;5018609;28;20506;-64
2021/04/04 08:50:18;;;;;;;15.57;6.53;;;11.80;99.90;;;;;;5014987;28;20407;-64
2021/04/04 08:52:49;;;;;;;11.30;6.45;;;11.80;99.90;;;;;;5017056;28;20532;-64
2021/04/04 08:55:27;;;;;;;7.68;5.82;;;11.80;99.90;;;;;;5019329;28;20025;-64
2021/04/04 08:57:53;;;;;;;9.95;5.97;;;11.60;99.90;;;;;;5021652;28;20034;-65
2021/04/04 09:00:22;;;;;;;8.68;6.72;;;11.80;99.90;;;;;;5017438;28;20553;-64
2021/04/04 09:03:04;;;;;;;7.53;5.85;;;11.90;99.90;;;;;;5020888;28;20053;-65
2021/04/04 09:05:33;;;;;;;7.95;5.72;;;12.10;99.90;;;;;;5011654;28;20101;-64
2021/04/04 09:08:01;;;;;;;7.45;5.13;;;12.00;99.90;;;;;;5017855;28;20065;-65
2021/04/04 09:10:29;;;;;;;6.53;5.07;;;12.00;99.90;;;;;;5014325;28;20026;-64
2021/04/04 09:12:57;;;;;;;7.35;4.93;;;12.10;99.90;;;;;;5016610;28;20034;-65
2021/04/04 09:15:25;;;;;;;8.95;5.35;;;12.20;99.90;;;;;;5009507;28;20024;-65
2021/04/04 09:17:56;;;;;;;5.78;4.45;;;12.40;99.90;;;;;;5020044;28;20133;-65
2021/04/04 09:20:36;;;;;;;6.57;4.53;;;12.70;99.90;;;;;;5017413;28;20124;-65
2021/04/04 09:23:04;;;;;;;9.48;4.80;;;12.80;99.90;;;;;;5022371;28;20029;-65
2021/04/04 09:25:38;;;;;;;8.40;4.55;;;12.70;99.90;;;;;;5019009;28;20127;-65
2021/04/04 09:28:09;;;;;;;9.27;4.85;;;12.80;99.90;;;;;;5014959;28;20034;-65
2021/04/04 09:30:44;;;;;;;6.55;5.20;;;13.20;99.90;;;;;;5017981;28;20097;-65
2021/04/04 09:33:13;;;;;;;8.15;4.57;;;13.10;99.90;;;;;;5015289;28;20499;-65
2021/04/04 09:35:40;;;;;;;10.20;4.93;;;13.30;99.90;;;;;;5012283;28;20056;-65
2021/04/04 09:38:14;;;;;;;9.52;4.85;;;13.00;99.90;;;;;;5016892;28;20026;-66
2021/04/04 09:40:44;;;;;;;6.88;4.45;;;13.30;99.90;;;;;;5014705;28;20407;-66
2021/04/04 09:43:15;;;;;;;8.43;4.78;;;13.80;99.90;;;;;;5014443;28;20022;-65
2021/04/04 09:45:42;;;;;;;11.55;5.18;;;13.70;99.90;;;;;;5013320;28;20022;-66
2021/04/04 09:48:40;;;;;;;5.18;4.65;;;13.60;99.90;;;;;;5015433;28;20022;-66
2021/04/04 09:51:09;;;;;;;8.48;4.15;;;13.60;99.90;;;;;;5018019;28;20041;-65
2021/04/04 09:53:35;;;;;;;11.38;4.95;;;13.80;99.90;;;;;;5011832;28;20521;-66
2021/04/04 09:56:13;;;;;;;11.15;4.03;;;14.10;99.90;;;;;;5018300;28;20025;-65
2021/04/04 09:58:48;;;;;;;7.68;4.40;;;13.90;99.90;;;;;;5012108;28;20028;-65
2021/04/04 10:01:15;;;;;;;7.13;4.10;;;14.20;99.90;;;;;;5023175;28;20083;-65
2021/04/04 10:03:41;;;;;;;5.68;4.32;;;14.40;99.90;;;;;;5012127;28;20037;-65
2021/04/04 10:06:12;;;;;;;10.73;5.35;;;14.60;99.90;;;;;;5021028;28;20113;-66
2021/04/04 10:08:38;;;;;;;14.63;4.85;;;14.60;99.90;;;;;;5010992;28;20096;-65
2021/04/04 10:11:14;;;;;;;8.00;3.85;;;14.70;99.90;;;;;;5020854;28;20045;-65
2021/04/04 10:13:40;;;;;;;9.73;3.92;;;14.90;99.90;;;;;;5010069;28;20092;-65
2021/04/04 10:16:18;;;;;;;10.60;5.22;;;14.70;99.90;;;;;;5020166;28;20013;-65
2021/04/04 10:19:03;;;;;;;5.68;4.07;;;14.80;99.90;;;;;;5010593;28;20029;-65
2021/04/04 10:21:29;;;;;;;5.35;4.85;;;15.20;99.90;;;;;;5001507;28;20034;-66
2021/04/04 10:23:55;;;;;;;5.22;4.45;;;14.90;99.90;;;;;;5001015;28;20076;-66
2021/04/04 10:26:22;;;;;;;5.90;4.07;;;14.80;99.90;;;;;;4997395;28;20030;-65
2021/04/04 10:28:49;;;;;;;9.75;4.38;;;15.00;99.90;;;;;;5018554;28;20057;-66
2021/04/04 10:31:16;;;;;;;7.05;4.47;;;15.40;99.90;;;;;;5003489;28;20053;-65
2021/04/04 10:33:42;;;;;;;5.75;4.10;;;15.90;99.90;;;;;;5003019;28;20057;-65
2021/04/04 10:36:15;;;;;;;6.55;4.30;;;15.80;99.90;;;;;;5001676;28;20022;-66
2021/04/04 10:38:41;;;;;;;5.35;3.63;;;15.40;99.90;;;;;;5013258;28;20068;-65
2021/04/04 10:41:07;;;;;;;5.85;3.95;;;15.90;99.90;;;;;;5027249;28;20025;-65
2021/04/04 10:43:47;;;;;;;5.95;3.80;;;15.80;99.90;;;;;;5009587;28;20516;-65
2021/04/04 10:46:15;;;;;;;6.03;3.70;;;15.90;99.90;;;;;;5020422;28;20025;-66
2021/04/04 10:48:45;;;;;;;7.38;3.60;;;16.10;99.60;;;;;;5007898;28;20392;-66
2021/04/04 10:51:16;;;;;;;5.80;3.95;;;16.10;98.90;;;;;;5022899;28;20022;-66
2021/04/04 10:53:42;;;;;;;9.48;3.80;;;16.40;99.90;;;;;;5016348;28;20550;-66
2021/04/04 10:56:10;;;;;;;6.38;3.60;;;16.30;99.90;;;;;;5023414;28;20037;-66
2021/04/04 10:58:37;;;;;;;4.70;3.33;;;16.40;98.30;;;;;;5014686;28;20025;-66
2021/04/04 11:01:04;;;;;;;9.48;3.70;;;16.30;98.30;;;;;;5007072;28;20033;-66
2021/04/04 11:03:31;;;;;;;6.72;3.42;;;16.00;97.10;;;;;;5000078;28;20034;-66
2021/04/04 11:05:59;;;;;;;8.30;3.80;;;16.40;99.10;;;;;;5017345;28;20502;-66
2021/04/04 11:08:25;;;;;;;5.35;2.95;;;16.90;97.20;;;;;;5016453;28;20650;-66
2021/04/04 11:10:51;;;;;;;7.78;5.10;;;17.00;97.00;;;;;;5024760;28;20053;-66
2021/04/04 11:13:19;;;;;;;7.45;5.57;;;17.00;97.00;;;;;;5011380;28;20034;-66
2021/04/04 11:16:00;;;;;;;7.35;4.15;;;16.70;96.40;;;;;;5014506;28;20032;-66
2021/04/04 11:18:28;;;;;;;8.65;4.28;;;16.40;98.00;;;;;;5016230;28;20076;-66
2021/04/04 11:20:56;;;;;;;8.32;4.00;;;16.50;97.00;;;;;;5019047;28;20510;-66
2021/04/04 11:23:23;;;;;;;10.32;4.28;;;16.80;97.50;;;;;;5015284;28;20022;-66
2021/04/04 11:25:49;;;;;;;10.88;4.45;;;17.00;99.40;;;;;;5017510;28;20022;-66
2021/04/04 11:28:26;;;;;;;5.32;3.80;;;17.20;96.70;;;;;;5013750;28;20072;-66
2021/04/04 11:30:53;;;;;;;4.63;3.88;;;17.20;97.00;;;;;;5005243;28;20048;-66
2021/04/04 11:33:28;;;;;;;5.07;3.83;;;17.90;97.70;;;;;;5008390;28;20049;-66
2021/04/04 11:36:11;;;;;;;9.55;3.65;;;18.40;96.70;;;;;;5013320;28;20025;-66
2021/04/04 11:38:49;;;;;;;10.43;4.20;;;18.10;95.80;;;;;;5009217;28;20026;-66
2021/04/04 11:41:18;;;;;;;6.25;3.33;;;17.90;95.90;;;;;;5002247;28;20033;-66
2021/04/04 11:43:45;;;;;;;5.25;3.80;;;17.80;96.70;;;;;;4999068;28;20117;-66
2021/04/04 11:46:50;;;;;;;7.63;3.63;;;18.30;95.60;;;;;;4997714;28;20032;-66
2021/04/04 11:49:31;;;;;;;6.13;3.75;;;18.50;96.00;;;;;;4997608;28;20062;-67
2021/04/04 11:51:58;;;;;;;3.78;3.40;;;18.50;96.00;;;;;;5008103;28;20045;-66
2021/04/04 11:54:42;;;;;;;9.85;3.70;;;19.00;96.50;;;;;;5002559;28;20483;-66
2021/04/04 11:57:08;;;;;;;10.75;3.67;;;19.10;95.20;;;;;;5006455;28;20022;-67
2021/04/04 11:59:34;;;;;;;7.00;3.22;;;19.10;96.20;;;;;;4999971;28;20031;-67
2021/04/04 12:02:00;;;;;;;6.68;3.45;;;18.80;94.70;;;;;;5003634;28;20018;-67
2021/04/04 12:04:34;;;;;;;5.45;3.40;;;18.90;94.70;;;;;;4994526;28;20034;-66
2021/04/04 12:07:17;;;;;;;4.50;3.40;;;18.70;94.80;;;;;;4999786;28;20055;-67
2021/04/04 12:09:47;;;;;;;5.32;3.05;;;19.20;93.90;;;;;;5004938;28;20462;-67
2021/04/04 12:12:13;;;;;;;5.88;3.13;;;19.40;93.80;;;;;;5006610;28;20041;-67
2021/04/04 12:14:52;;;;;;;6.72;3.03;;;19.40;93.30;;;;;;4993924;28;20399;-67
2021/04/04 12:17:20;;;;;;;3.22;2.92;;;19.50;92.60;;;;;;5006546;28;20030;-67
2021/04/04 12:19:47;;;;;;;6.72;3.08;;;19.30;92.90;;;;;;4996954;28;20089;-67
2021/04/04 12:22:14;;;;;;;9.30;3.60;;;19.10;93.30;;;;;;5004923;28;20098;-67
2021/04/04 12:24:51;;;;;;;5.03;3.40;;;19.20;92.80;;;;;;5001846;28;20022;-67
2021/04/04 12:27:23;;;;;;;5.03;2.75;;;19.30;92.40;;;;;;5010162;28;20061;-67
2021/04/04 12:29:51;;;;;;;3.30;3.00;;;20.00;92.70;;;;;;5001121;28;20105;-67
2021/04/04 12:32:23;;;;;;;6.13;3.45;;;19.90;93.30;;;;;;5008545;28;20033;-65
2021/04/04 12:34:51;;;;;;;5.18;3.53;;;20.30;92.40;;;;;;4997710;28;20030;-65
2021/04/04 12:37:19;;;;;;;4.18;3.15;;;20.70;92.80;;;;;;5002887;28;20079;-65
2021/04/04 12:39:46;;;;;;;7.15;3.40;;;19.60;90.60;;;;;;4997555;28;20037;-65
2021/04/04 12:42:14;;;;;;;3.15;2.83;;;19.70;91.40;;;;;;5025335;28;20025;-65
2021/04/04 12:44:42;;;;;;;5.05;2.83;;;19.70;91.80;;;;;;4999443;28;20057;-65
2021/04/04 12:47:10;;;;;;;4.28;2.22;;;20.30;91.60;;;;;;5004030;28;20505;-67
2021/04/04 12:49:38;;;;;;;7.55;2.80;;;20.60;91.80;;;;;;4998439;28;20042;-64
2021/04/04 12:52:04;;;;;;;2.85;2.63;;;20.50;90.60;;;;;;5002457;28;20582;-65
2021/04/04 12:54:30;;;;;;;4.38;2.50;;;21.00;91.10;;;;;;4995124;28;20022;-64
2021/04/04 12:56:56;;;;;;;5.90;3.13;;;21.30;91.20;;;;;;5002147;28;20052;-65
2021/04/04 12:59:22;;;;;;;6.32;3.40;;;20.90;90.60;;;;;;4994383;28;20545;-65
2021/04/04 13:01:48;;;;;;;4.55;3.22;;;20.60;89.40;;;;;;4999935;28;20034;-65
2021/04/04 13:04:19;;;;;;;3.17;2.85;;;20.90;90.40;;;;;;5012527;28;20112;-67
2021/04/04 13:06:45;;;;;;;6.65;2.70;;;20.20;90.50;;;;;;5018871;28;20050;-65